Главная страница
METAR-TAF:

METAR-TAF

Аэропорты :

Фааа

Таити, Французская Полинезия

широта: 17-33S, долгота: 149-37W, высота над уровнем моря: 2 м

Текущие метеонаблюдения

Эта сводка был подготовлена 16 минут назад, в 01:30 UTC
Ветер 4 Узел от северно-северо-западный
Температура 29°C
Влажность 62%
Давление 1014 hPa
Видимость 10 км и более
небольшая облачность на высоте 2300 фута
Рассеянная облачность на высоте 5000 фута

METAR: NTAA 160130Z 33004KT 9999 FEW023 BKN050 29/21 Q1014 NOSIG

Время: 15:46 (01:46 UTC)

Прогноз

Эта сводка был подготовлена 2 часа и 46 минут назад, в 23:00 UTC
Прогноз действительный с 16-го 00 UTC до 17-го 06 UTC
Ветер 5 Узел переменных направлений
Видимость 10 км и более
небольшая облачность на высоте 2300 фута

TAF: NTAA 152300Z 1600/1706 VRB05KT 9999 FEW023

Метеонаблюдения и прогнозы для более 4000 аэропортов (сводки METAR и TAF).

Имеющиеся станции представлены на карте желтыми и красными точками.

Чтобы увидеть название станции, наведите на нее мышь.

Затем щелкните, чтобы увидеть метеонаблюдения и метеопрогнозы.

Управление картой: чтобы увеличить масштаб, щелкните зеленые кнопки с черным крестиком; чтобы уменьшить масштаб, щелкните зеленую кнопку с тире; для просмотра соседних карт щелкайте зеленые стрелки.


METAR-TAF: